Time;durP1;ratioP1;P1;durP2;ratioP2;P2;SDS_P1;SDS_P2;PMS_P1;PMS_P2;Temp;Humidity;BMP_temperature;BMP_pressure;BME280_temperature;BME280_humidity;BME280_pressure;Samples;Min_cycle;Max_cycle;Signal;HPM_P1;HPM_P2
2024/03/24 00:01:42;;;;;;;11.65;9.23;;;;;;;7.12;100.00;99383.13;5028428;28;20032;-71
2024/03/24 00:04:08;;;;;;;12.30;9.63;;;;;;;6.65;100.00;99405.25;5028124;28;20033;-70
2024/03/24 00:06:33;;;;;;;11.45;8.55;;;;;;;7.04;100.00;99373.19;5028363;28;20029;-72
2024/03/24 00:08:58;;;;;;;10.95;8.07;;;;;;;6.68;100.00;99238.50;5028730;28;20492;-71
2024/03/24 00:11:24;;;;;;;9.95;8.18;;;;;;;6.63;100.00;99327.88;5028181;28;20060;-71
2024/03/24 00:13:49;;;;;;;11.07;8.52;;;;;;;7.23;100.00;99379.47;5010190;28;20407;-71
2024/03/24 00:16:15;;;;;;;11.20;8.93;;;;;;;7.28;100.00;99370.09;5027727;28;20116;-72
2024/03/24 00:18:40;;;;;;;12.32;8.57;;;;;;;7.17;100.00;99356.88;5028573;28;20025;-71
2024/03/24 00:21:06;;;;;;;12.88;8.65;;;;;;;7.24;100.00;99353.34;5027790;28;22311;-71
2024/03/24 00:23:32;;;;;;;12.45;8.80;;;;;;;6.58;100.00;99175.63;5009436;28;20473;-71
2024/03/24 00:25:57;;;;;;;11.52;8.93;;;;;;;6.64;100.00;99408.63;5009614;28;20025;-72
2024/03/24 00:28:23;;;;;;;13.48;8.82;;;;;;;6.94;100.00;99290.91;5009936;28;20824;-71
2024/03/24 00:30:48;;;;;;;12.75;9.32;;;;;;;6.73;100.00;99314.16;5027250;28;20142;-71
2024/03/24 00:33:13;;;;;;;15.55;9.32;;;;;;;7.20;100.00;99292.78;5010292;28;20029;-71
2024/03/24 00:35:39;;;;;;;12.55;9.88;;;;;;;7.00;100.00;99328.66;5027684;28;20116;-71
2024/03/24 00:38:04;;;;;;;11.65;8.82;;;;;;;6.25;100.00;99254.69;5028087;28;20471;-72
2024/03/24 00:40:30;;;;;;;12.38;9.25;;;;;;;7.33;100.00;99322.75;5027287;28;20022;-71
2024/03/24 00:42:55;;;;;;;14.70;10.30;;;;;;;6.46;100.00;99222.22;5010177;28;20038;-71
2024/03/24 00:45:21;;;;;;;13.27;10.23;;;;;;;7.58;100.00;99312.84;5027521;28;20061;-71
2024/03/24 00:47:46;;;;;;;16.10;11.10;;;;;;;7.16;100.00;99329.09;5026730;28;20060;-74
2024/03/24 00:50:14;;;;;;;16.65;10.80;;;;;;;6.62;100.00;99212.56;5027568;28;20037;-71
2024/03/24 00:52:39;;;;;;;16.58;11.40;;;;;;;6.88;100.00;99223.69;5009935;28;20456;-71
2024/03/24 00:55:05;;;;;;;17.23;12.07;;;;;;;6.62;100.00;99253.81;5027471;28;20084;-73
2024/03/24 00:57:31;;;;;;;19.33;12.85;;;;;;;6.53;100.00;99227.94;5027473;28;20499;-72
2024/03/24 00:59:56;;;;;;;15.68;11.57;;;;;;;7.07;100.00;99223.22;5027700;28;20035;-72
2024/03/24 01:02:21;;;;;;;18.23;11.40;;;;;;;6.23;100.00;99120.16;5010066;28;20030;-71
2024/03/24 01:04:47;;;;;;;15.75;10.93;;;;;;;6.96;100.00;99193.16;5026723;28;20034;-71
2024/03/24 01:07:12;;;;;;;14.32;10.13;;;;;;;7.57;100.00;99263.97;5009683;28;20136;-71
2024/03/24 01:09:38;;;;;;;13.38;9.68;;;;;;;7.34;100.00;99285.69;5009564;28;20060;-71
2024/03/24 01:12:04;;;;;;;14.77;10.77;;;;;;;6.45;100.00;99214.69;5029424;28;20021;-72
2024/03/24 01:14:29;;;;;;;18.98;13.43;;;;;;;7.29;100.00;99307.72;5031377;28;20037;-76
2024/03/24 01:16:55;;;;;;;27.92;15.73;;;;;;;6.43;100.00;99226.50;5031017;28;20423;-70
2024/03/24 01:19:21;;;;;;;18.52;11.05;;;;;;;6.46;100.00;99249.97;5030819;28;20044;-71
2024/03/24 01:21:54;;;;;;;14.85;10.38;;;;;;;5.89;100.00;99269.75;5031064;28;20033;-71
2024/03/24 01:24:19;;;;;;;15.02;10.48;;;;;;;6.12;100.00;99257.47;5030446;28;20506;-71
2024/03/24 01:26:44;;;;;;;14.38;10.40;;;;;;;5.69;100.00;99270.97;5012834;28;20021;-71
2024/03/24 01:29:12;;;;;;;21.25;13.02;;;;;;;6.79;100.00;99359.47;5030668;28;20045;-70
2024/03/24 01:31:37;;;;;;;32.42;19.83;;;;;;;6.30;100.00;99278.13;5030519;28;20032;-71
2024/03/24 01:34:02;;;;;;;29.90;18.10;;;;;;;6.82;100.00;99361.94;5030780;28;20423;-71
2024/03/24 01:36:28;;;;;;;19.48;12.13;;;;;;;6.44;100.00;99369.53;5030915;28;20065;-70
2024/03/24 01:38:53;;;;;;;21.13;12.65;;;;;;;6.04;100.00;99410.69;5030097;28;20078;-72
2024/03/24 01:41:19;;;;;;;14.98;10.50;;;;;;;6.58;100.00;99352.38;5012733;28;20033;-70
2024/03/24 01:43:44;;;;;;;13.00;10.02;;;;;;;6.59;100.00;99377.59;5012231;28;20633;-70
2024/03/24 01:46:09;;;;;;;13.77;9.77;;;;;;;6.07;100.00;99409.81;5012537;28;20032;-70
2024/03/24 01:48:35;;;;;;;12.98;9.57;;;;;;;5.75;100.00;99309.50;5030473;28;20044;-71
2024/03/24 01:51:03;;;;;;;12.73;9.35;;;;;;;5.21;100.00;99336.53;5011870;28;20029;-70
2024/03/24 01:53:31;;;;;;;11.90;9.18;;;;;;;5.78;100.00;99433.03;5012391;28;20553;-72
2024/03/24 01:55:57;;;;;;;11.70;9.32;;;;;;;6.04;100.00;99430.06;5030339;28;20057;-70
2024/03/24 01:58:22;;;;;;;11.90;9.50;;;;;;;5.32;100.00;99313.69;5012478;28;20527;-71
2024/03/24 02:00:48;;;;;;;13.52;9.05;;;;;;;5.96;100.00;99447.03;5029976;28;20518;-71
2024/03/24 02:03:13;;;;;;;13.00;9.73;;;;;;;5.93;100.00;99406.72;5030195;28;20029;-71
2024/03/24 02:05:39;;;;;;;13.13;9.65;;;;;;;5.62;100.00;99413.97;5012303;28;20044;-71
2024/03/24 02:08:04;;;;;;;12.30;9.10;;;;;;;5.92;100.00;99367.22;5029909;28;20026;-71
2024/03/24 02:10:29;;;;;;;13.35;9.82;;;;;;;5.69;100.00;99334.84;5011114;28;20408;-71
2024/03/24 02:12:55;;;;;;;13.43;10.55;;;;;;;5.99;100.00;99459.56;5029891;28;20038;-70
2024/03/24 02:15:20;;;;;;;12.55;9.38;;;;;;;5.87;100.00;99303.44;5029934;28;20115;-71
2024/03/24 02:17:46;;;;;;;17.20;10.30;;;;;;;5.68;100.00;99333.19;5029648;28;20056;-71
2024/03/24 02:20:15;;;;;;;18.50;11.38;;;;;;;4.97;100.00;99293.31;5012401;28;20033;-71
2024/03/24 02:22:42;;;;;;;18.90;13.68;;;;;;;6.12;100.00;99446.69;5012150;28;20035;-73
2024/03/24 02:25:08;;;;;;;20.45;13.95;;;;;;;6.06;100.00;99471.22;5028537;28;20033;-71
2024/03/24 02:27:34;;;;;;;23.13;11.38;;;;;;;6.09;100.00;99456.88;5010740;28;20160;-71
2024/03/24 02:30:00;;;;;;;14.70;11.05;;;;;;;6.28;100.00;99428.75;5029294;28;20096;-72
2024/03/24 02:32:26;;;;;;;16.20;11.07;;;;;;;5.43;100.00;99459.69;5028936;28;20029;-71
2024/03/24 02:34:52;;;;;;;18.95;11.93;;;;;;;6.18;100.00;99429.78;5029510;28;20127;-71
2024/03/24 02:37:18;;;;;;;17.23;10.30;;;;;;;6.03;100.00;99403.16;5029270;28;20521;-71
2024/03/24 02:39:44;;;;;;;15.93;10.25;;;;;;;5.25;100.00;99349.91;5029238;28;20047;-70
2024/03/24 02:42:09;;;;;;;16.88;10.65;;;;;;;5.14;100.00;99407.22;5029612;28;20116;-71
2024/03/24 02:44:36;;;;;;;18.80;10.63;;;;;;;5.50;100.00;99366.28;5015576;28;20412;-72
2024/03/24 02:47:02;;;;;;;15.50;10.80;;;;;;;4.79;100.00;99268.44;5027800;28;20036;-71
2024/03/24 02:49:27;;;;;;;20.77;12.88;;;;;;;4.84;100.00;99300.22;5011407;28;20026;-71
2024/03/24 02:51:53;;;;;;;33.05;22.88;;;;;;;5.10;100.00;99345.16;5029331;28;20036;-70
2024/03/24 02:54:18;;;;;;;29.48;19.08;;;;;;;5.62;100.00;99486.25;5028712;28;20033;-71
2024/03/24 02:56:44;;;;;;;21.00;13.57;;;;;;;5.85;100.00;99467.38;5029450;28;20123;-71
2024/03/24 02:59:09;;;;;;;21.08;12.00;;;;;;;5.53;100.00;99491.41;5028638;28;20041;-71
2024/03/24 03:01:34;;;;;;;18.85;11.90;;;;;;;5.16;100.00;99376.09;5011351;28;20029;-72
2024/03/24 03:04:00;;;;;;;18.00;11.90;;;;;;;5.83;100.00;99430.41;5028793;28;20048;-71
2024/03/24 03:06:27;;;;;;;18.13;13.00;;;;;;;5.93;100.00;99463.03;5028671;28;20048;-70
2024/03/24 03:08:52;;;;;;;17.38;11.75;;;;;;;5.51;100.00;99478.00;5027873;28;20045;-71
2024/03/24 03:11:18;;;;;;;15.60;11.00;;;;;;;4.90;100.00;99382.38;5010438;28;20029;-72
2024/03/24 03:13:43;;;;;;;19.58;11.57;;;;;;;5.13;100.00;99468.53;5010850;28;20021;-71
2024/03/24 03:16:08;;;;;;;14.77;10.07;;;;;;;4.32;100.00;99277.53;5010316;28;20163;-71
2024/03/24 03:18:34;;;;;;;16.35;11.52;;;;;;;5.50;100.00;99467.09;5028312;28;20108;-72
2024/03/24 03:20:59;;;;;;;14.75;9.93;;;;;;;5.64;100.00;99444.19;5027555;28;20128;-71
2024/03/24 03:23:25;;;;;;;15.10;11.32;;;;;;;5.67;100.00;99466.81;5010379;28;20030;-71
2024/03/24 03:25:50;;;;;;;16.95;11.63;;;;;;;5.53;100.00;99425.88;5028561;28;20050;-71
2024/03/24 03:28:18;;;;;;;19.88;11.90;;;;;;;5.53;100.00;99476.28;5010671;28;20036;-71
2024/03/24 03:30:43;;;;;;;13.63;10.35;;;;;;;5.06;100.00;99419.09;5010428;28;20056;-71
2024/03/24 03:33:09;;;;;;;12.20;8.82;;;;;;;5.56;100.00;99436.75;5027663;28;20033;-71
2024/03/24 03:35:34;;;;;;;12.75;9.43;;;;;;;5.17;100.00;99501.19;5028012;28;20029;-71
2024/03/24 03:38:00;;;;;;;18.75;9.90;;;;;;;4.69;100.00;99413.75;5010599;28;20037;-71
2024/03/24 03:40:25;;;;;;;13.88;10.07;;;;;;;4.82;100.00;99394.25;5028299;28;20051;-71
2024/03/24 03:42:51;;;;;;;14.82;10.27;;;;;;;5.45;100.00;99442.84;5027535;28;20033;-72
2024/03/24 03:45:17;;;;;;;12.98;9.55;;;;;;;5.55;100.00;99449.38;5010718;28;20439;-71
2024/03/24 03:47:43;;;;;;;14.50;9.60;;;;;;;5.47;100.00;99441.13;5028591;28;20026;-71
2024/03/24 03:50:13;;;;;;;12.75;9.80;;;;;;;5.19;100.00;99484.38;5028835;28;20033;-72
2024/03/24 03:52:47;;;;;;;14.45;11.05;;;;;;;5.19;100.00;99334.91;5028288;28;20030;-70
2024/03/24 03:55:14;;;;;;;15.07;11.90;;;;;;;5.28;100.00;99456.53;5028205;28;20133;-71
2024/03/24 03:57:41;;;;;;;18.25;11.35;;;;;;;5.12;100.00;99467.69;5010381;28;20051;-71
2024/03/24 04:00:10;;;;;;;14.00;10.75;;;;;;;5.05;100.00;99488.75;5009757;28;20037;-70
2024/03/24 04:02:42;;;;;;;16.80;10.85;;;;;;;4.57;100.00;99368.63;5027754;28;20042;-71
2024/03/24 04:05:09;;;;;;;15.98;10.77;;;;;;;5.15;100.00;99487.78;5025968;28;20199;-71
2024/03/24 04:07:35;;;;;;;16.77;11.13;;;;;;;5.22;100.00;99459.16;5026410;28;20038;-70
2024/03/24 04:10:01;;;;;;;14.75;11.27;;;;;;;5.47;100.00;99446.19;5010899;28;20474;-71
2024/03/24 04:12:27;;;;;;;14.75;11.77;;;;;;;4.52;100.00;99430.75;5018202;28;20025;-71
2024/03/24 04:14:52;;;;;;;21.63;13.68;;;;;;;4.58;100.00;99267.09;5027850;28;20541;-70
2024/03/24 04:17:18;;;;;;;23.85;13.38;;;;;;;5.01;100.00;99378.03;5028162;28;20116;-71
2024/03/24 04:19:43;;;;;;;17.58;11.27;;;;;;;5.69;100.00;99448.28;5026996;28;20057;-72
2024/03/24 04:22:08;;;;;;;20.33;11.90;;;;;;;5.18;100.00;99490.28;5028610;28;20087;-71
2024/03/24 04:24:34;;;;;;;18.48;11.43;;;;;;;5.44;100.00;99471.41;5009982;28;20116;-71
2024/03/24 04:26:59;;;;;;;21.30;11.35;;;;;;;5.60;100.00;99463.59;5027571;28;20496;-71
2024/03/24 04:29:25;;;;;;;18.38;11.80;;;;;;;5.59;100.00;99428.31;5010603;28;20049;-71
2024/03/24 04:31:51;;;;;;;17.65;11.65;;;;;;;4.88;100.00;99367.31;5028234;28;20099;-71
2024/03/24 04:34:16;;;;;;;21.00;11.80;;;;;;;5.35;100.00;99448.88;5027828;28;20459;-71
2024/03/24 04:36:41;;;;;;;22.02;14.30;;;;;;;5.44;100.00;99468.88;5010186;28;20446;-70
2024/03/24 04:39:12;;;;;;;21.60;15.02;;;;;;;5.50;100.00;99482.25;5027783;28;20752;-71
2024/03/24 04:41:40;;;;;;;21.98;14.98;;;;;;;5.32;100.00;99365.78;5009149;28;20056;-71
2024/03/24 04:44:06;;;;;;;22.02;13.68;;;;;;;4.97;100.00;99389.81;5022998;28;20057;-71
2024/03/24 04:46:32;;;;;;;20.27;11.85;;;;;;;5.59;100.00;99454.34;5029483;28;20100;-71
2024/03/24 04:48:58;;;;;;;21.50;12.35;;;;;;;6.21;100.00;99433.09;5012964;28;20067;-71
2024/03/24 04:51:23;;;;;;;23.88;12.50;;;;;;;5.45;100.00;99403.31;5030978;28;20060;-72
2024/03/24 04:53:49;;;;;;;30.83;19.90;;;;;;;6.19;100.00;99439.84;5031996;28;20039;-71
2024/03/24 04:56:15;;;;;;;31.67;17.20;;;;;;;5.35;100.00;99353.13;5013524;28;20049;-71
2024/03/24 04:58:40;;;;;;;28.70;14.60;;;;;;;6.21;100.00;99438.13;5031192;28;20104;-75
2024/03/24 05:01:06;;;;;;;25.63;14.15;;;;;;;5.97;100.00;99451.19;5011586;28;20117;-70
2024/03/24 05:03:31;;;;;;;25.33;12.70;;;;;;;5.89;100.00;99503.47;5013324;28;20425;-70
2024/03/24 05:05:57;;;;;;;28.90;16.35;;;;;;;6.10;100.00;99471.13;5012435;28;21799;-70
2024/03/24 05:08:22;;;;;;;26.40;16.38;;;;;;;5.89;100.00;99451.34;5030089;28;20029;-74
2024/03/24 05:10:47;;;;;;;27.00;14.02;;;;;;;5.86;100.00;99466.50;5030606;28;20572;-71
2024/03/24 05:13:13;;;;;;;21.23;14.57;;;;;;;5.75;100.00;99462.47;5012868;28;20030;-71
2024/03/24 05:15:39;;;;;;;27.63;14.73;;;;;;;5.64;100.00;99427.38;5029741;28;20120;-71
2024/03/24 05:18:07;;;;;;;22.20;12.85;;;;;;;5.44;100.00;99373.13;5028664;28;20108;-70
2024/03/24 05:20:37;;;;;;;16.80;12.45;;;;;;;6.02;100.00;99462.88;5013035;28;20091;-70
2024/03/24 05:23:03;;;;;;;22.20;14.90;;;;;;;6.12;100.00;99483.69;5010540;28;20033;-70
2024/03/24 05:25:30;;;;;;;36.25;22.83;;;;;;;6.05;100.00;99472.06;5030370;28;20067;-72
2024/03/24 05:27:55;;;;;;;32.33;21.75;;;;;;;6.29;100.00;99425.34;5030431;28;20033;-71
2024/03/24 05:30:21;;;;;;;32.17;22.20;;;;;;;5.82;100.00;99469.09;5012500;28;20087;-71
2024/03/24 05:32:46;;;;;;;23.27;16.60;;;;;;;6.68;100.00;99379.91;5019864;28;20462;-70
2024/03/24 05:35:12;;;;;;;21.80;16.13;;;;;;;6.67;100.00;99390.06;5012217;28;20029;-71
2024/03/24 05:37:38;;;;;;;25.45;17.38;;;;;;;5.82;100.00;99327.88;5012055;28;20033;-70
2024/03/24 05:40:04;;;;;;;20.38;14.13;;;;;;;7.01;100.00;99378.34;4992857;28;20041;-70
2024/03/24 05:42:29;;;;;;;16.85;13.48;;;;;;;7.19;100.00;99311.34;5029826;28;20507;-69
2024/03/24 05:44:55;;;;;;;18.60;13.85;;;;;;;7.35;100.00;99365.72;5011213;28;20028;-72
2024/03/24 05:47:20;;;;;;;23.98;17.75;;;;;;;7.45;100.00;99383.13;5010502;28;20025;-70
2024/03/24 05:49:46;;;;;;;30.35;21.00;;;;;;;7.59;100.00;99301.84;5027747;28;20037;-70
2024/03/24 05:52:11;;;;;;;26.92;20.75;;;;;;;7.35;100.00;99289.88;5012941;28;20025;-70
2024/03/24 05:54:36;;;;;;;35.45;26.00;;;;;;;8.26;100.00;99310.94;5025040;28;20060;-70
2024/03/24 05:57:02;;;;;;;47.72;35.05;;;;;;;7.87;100.00;99239.50;5011169;28;20506;-71
2024/03/24 05:59:27;;;;;;;58.53;43.67;;;;;;;7.44;100.00;99241.59;5028408;28;20038;-71
2024/03/24 06:01:53;;;;;;;58.83;44.80;;;;;;;8.65;100.00;99294.53;5012130;28;20424;-70
2024/03/24 06:04:18;;;;;;;54.60;40.03;;;;;;;8.92;100.00;99272.53;5028650;28;20037;-70
2024/03/24 06:06:44;;;;;;;49.28;34.97;;;;;;;9.07;100.00;99272.06;5013277;28;20025;-71
2024/03/24 06:09:09;;;;;;;44.60;32.97;;;;;;;8.06;100.00;99179.06;5027184;28;20052;-70
2024/03/24 06:11:35;;;;;;;42.42;31.70;;;;;;;8.35;100.00;99163.81;5028409;28;20044;-71
2024/03/24 06:14:00;;;;;;;35.33;27.20;;;;;;;9.47;100.00;99260.47;5027633;28;20544;-71
2024/03/24 06:16:26;;;;;;;32.85;25.33;;;;;;;9.53;100.00;99222.22;5028048;28;20029;-70
2024/03/24 06:18:52;;;;;;;32.10;24.88;;;;;;;9.51;100.00;99116.59;5008489;28;20168;-71
2024/03/24 06:21:18;;;;;;;31.25;24.33;;;;;;;9.60;100.00;99099.34;5027400;28;20041;-69
2024/03/24 06:23:43;;;;;;;36.50;28.83;;;;;;;8.86;100.00;99234.72;5011205;28;20033;-70
2024/03/24 06:26:09;;;;;;;37.28;27.05;;;;;;;9.61;100.00;99249.84;5026957;28;20137;-71
2024/03/24 06:28:34;;;;;;;36.38;28.58;;;;;;;8.79;100.00;99169.94;5027394;28;20037;-71
2024/03/24 06:31:00;;;;;;;50.97;34.92;;;;;;;9.43;100.00;99238.66;5027116;28;20034;-70
2024/03/24 06:33:26;;;;;;;25.60;21.08;;;;;;;9.09;100.00;99123.25;5011327;28;20037;-70
2024/03/24 06:35:51;;;;;;;30.83;22.60;;;;;;;10.19;100.00;99064.00;5028785;28;20029;-74
2024/03/24 06:38:16;;;;;;;31.25;22.52;;;;;;;10.32;100.00;99148.94;5027783;28;20439;-69
2024/03/24 06:40:43;;;;;;;26.38;15.73;;;;;;;10.02;100.00;99040.94;5027375;28;20053;-70
2024/03/24 06:43:12;;;;;;;26.73;16.88;;;;;;;11.32;100.00;99106.50;5013402;28;20029;-70
2024/03/24 06:45:40;;;;;;;17.98;13.93;;;;;;;10.12;100.00;98930.53;5027762;28;20104;-71
2024/03/24 06:48:06;;;;;;;19.00;12.75;;;;;;;10.72;100.00;99129.50;5027516;28;20112;-70
2024/03/24 06:50:32;;;;;;;15.70;12.50;;;;;;;10.94;100.00;99132.78;5028153;28;20125;-70
2024/03/24 06:52:58;;;;;;;19.95;13.40;;;;;;;10.63;100.00;99153.63;5026274;28;20118;-71
2024/03/24 06:55:25;;;;;;;24.05;16.45;;;;;;;10.35;100.00;99156.47;5010453;28;20046;-70
2024/03/24 06:57:50;;;;;;;18.50;14.95;;;;;;;11.14;100.00;99089.50;5028031;28;20216;-70
2024/03/24 07:00:19;;;;;;;16.88;12.52;;;;;;;10.86;100.00;99127.22;5027617;28;20044;-69
2024/03/24 07:02:48;;;;;;;14.57;12.15;;;;;;;11.43;100.00;98941.41;5027359;28;20542;-69
2024/03/24 07:05:16;;;;;;;15.63;12.55;;;;;;;10.54;100.00;99143.00;5010586;28;20045;-69
2024/03/24 07:07:41;;;;;;;14.00;10.70;;;;;;;11.64;100.00;99110.97;5025293;28;20040;-69
2024/03/24 07:10:07;;;;;;;18.60;13.77;;;;;;;11.45;100.00;99030.44;5026427;28;20021;-70
2024/03/24 07:12:34;;;;;;;13.85;10.77;;;;;;;12.02;100.00;99071.78;5027211;28;20108;-69
2024/03/24 07:15:00;;;;;;;15.27;12.25;;;;;;;11.98;100.00;98970.94;5027323;28;20100;-70
2024/03/24 07:17:26;;;;;;;17.27;13.60;;;;;;;12.76;100.00;99006.00;5010473;28;20088;-69
2024/03/24 07:19:51;;;;;;;15.40;11.00;;;;;;;11.33;100.00;98998.72;5009652;28;20124;-69
2024/03/24 07:22:17;;;;;;;12.20;10.77;;;;;;;12.10;100.00;99073.97;5024413;28;20030;-69
2024/03/24 07:24:42;;;;;;;15.00;11.25;;;;;;;12.03;100.00;99087.91;5024959;28;20068;-69
2024/03/24 07:27:08;;;;;;;15.73;11.15;;;;;;;12.78;100.00;99025.44;5026818;28;20029;-67
2024/03/24 07:29:33;;;;;;;16.88;10.85;;;;;;;12.46;100.00;98844.47;5026725;28;20120;-69
2024/03/24 07:32:00;;;;;;;13.18;11.10;;;;;;;13.17;100.00;99020.00;5027238;28;20127;-68
2024/03/24 07:34:25;;;;;;;12.07;10.50;;;;;;;13.10;100.00;99026.31;5027063;28;20037;-72
2024/03/24 07:36:51;;;;;;;14.38;10.93;;;;;;;13.84;100.00;98974.44;5011272;28;20025;-68
2024/03/24 07:39:16;;;;;;;14.60;10.55;;;;;;;12.72;100.00;99056.34;5011702;28;20033;-69
2024/03/24 07:41:41;;;;;;;11.48;10.27;;;;;;;13.29;100.00;98914.66;5026395;28;20037;-71
2024/03/24 07:44:07;;;;;;;12.90;10.52;;;;;;;13.34;100.00;99047.97;5026368;28;20037;-72
2024/03/24 07:46:32;;;;;;;13.05;11.70;;;;;;;14.30;100.00;98943.69;5026810;28;20040;-70
2024/03/24 07:48:57;;;;;;;12.93;11.00;;;;;;;13.97;100.00;98843.44;5009250;28;20438;-70
2024/03/24 07:51:24;;;;;;;12.35;10.93;;;;;;;12.83;100.00;98864.50;5025185;28;20120;-71
2024/03/24 07:53:49;;;;;;;12.05;10.75;;;;;;;14.18;100.00;98959.72;5024320;28;20045;-71
2024/03/24 07:56:15;;;;;;;13.38;10.90;;;;;;;13.79;100.00;99009.66;4991678;28;20050;-72
2024/03/24 07:58:43;;;;;;;12.98;11.68;;;;;;;13.31;100.00;98920.50;4986797;28;20755;-71
2024/03/24 08:01:09;;;;;;;14.70;10.75;;;;;;;14.44;100.00;98977.75;4988329;28;20026;-70
2024/03/24 08:03:34;;;;;;;12.85;10.60;;;;;;;13.27;100.00;98931.78;4985698;28;20053;-71
2024/03/24 08:06:00;;;;;;;13.63;10.05;;;;;;;13.59;100.00;99062.75;4986757;28;20037;-71
2024/03/24 08:08:25;;;;;;;13.65;10.27;;;;;;;12.64;100.00;98862.13;4987969;28;20049;-70
2024/03/24 08:10:51;;;;;;;12.07;10.02;;;;;;;13.54;100.00;98922.59;4985366;28;20464;-72
2024/03/24 08:13:16;;;;;;;11.05;9.85;;;;;;;14.03;100.00;98871.16;4988956;28;20038;-71
2024/03/24 08:15:42;;;;;;;16.05;10.55;;;;;;;13.63;100.00;99019.09;4987757;28;20501;-71
2024/03/24 08:18:07;;;;;;;18.42;11.25;;;;;;;13.77;100.00;99028.53;4987803;28;20112;-71
2024/03/24 08:20:32;;;;;;;11.75;9.95;;;;;;;13.43;100.00;99029.59;5005079;28;20129;-70
2024/03/24 08:22:58;;;;;;;22.83;10.02;;;;;;;14.61;100.00;98916.19;4991955;28;20026;-75
2024/03/24 08:25:23;;;;;;;13.35;11.52;;;;;;;13.34;100.00;98998.63;4991184;28;20129;-71
2024/03/24 08:27:49;;;;;;;14.38;12.05;;;;;;;13.70;100.00;98976.16;4990671;28;20042;-70
2024/03/24 08:30:14;;;;;;;21.48;15.13;;;;;;;14.04;100.00;98916.28;4991661;28;20026;-70
2024/03/24 08:32:40;;;;;;;12.65;10.77;;;;;;;13.73;100.00;98823.56;4990415;28;20042;-70
2024/03/24 08:35:05;;;;;;;14.63;11.13;;;;;;;14.41;100.00;98925.97;4992019;28;20448;-74
2024/03/24 08:37:31;;;;;;;12.57;10.35;;;;;;;14.13;100.00;98855.19;4991132;28;20174;-71
2024/03/24 08:39:56;;;;;;;13.35;10.50;;;;;;;14.57;100.00;98936.91;4991379;28;20121;-70
2024/03/24 08:42:22;;;;;;;14.18;10.98;;;;;;;15.22;100.00;98890.09;4989113;28;20023;-71
2024/03/24 08:44:47;;;;;;;15.80;12.90;;;;;;;14.86;100.00;98940.22;4990260;28;20042;-71
2024/03/24 08:47:13;;;;;;;13.70;12.10;;;;;;;13.57;100.00;99011.78;4992174;28;20030;-71
2024/03/24 08:49:38;;;;;;;13.32;11.93;;;;;;;14.56;100.00;98912.25;4992300;28;20037;-69
2024/03/24 08:52:04;;;;;;;16.95;12.38;;;;;;;14.69;100.00;98895.25;4992119;28;20041;-71
2024/03/24 08:54:29;;;;;;;13.48;11.57;;;;;;;14.68;100.00;98775.91;4990623;28;20037;-74
2024/03/24 08:56:55;;;;;;;11.98;10.70;;;;;;;15.66;100.00;98824.91;4989812;28;20535;-71
2024/03/24 08:59:21;;;;;;;16.17;13.82;;;;;;;13.76;100.00;99040.50;4991925;28;20042;-71
2024/03/24 09:01:47;;;;;;;12.93;11.23;;;;;;;15.14;100.00;98789.94;4990160;28;20489;-71
2024/03/24 09:04:13;;;;;;;11.68;10.45;;;;;;;16.27;100.00;98773.63;4990374;28;20050;-71
2024/03/24 09:06:38;;;;;;;11.55;10.35;;;;;;;15.97;100.00;98965.47;4990872;28;20026;-71
2024/03/24 09:09:04;;;;;;;13.00;10.70;;;;;;;16.59;100.00;98886.84;4990700;28;20026;-70
2024/03/24 09:11:29;;;;;;;12.45;10.85;;;;;;;15.86;100.00;98816.72;4991961;28;20025;-70
2024/03/24 09:13:55;;;;;;;13.30;11.65;;;;;;;15.63;100.00;98960.00;4992390;28;20053;-69
2024/03/24 09:16:20;;;;;;;12.82;11.40;;;;;;;14.99;100.00;99110.88;4991681;28;20031;-70
2024/03/24 09:18:46;;;;;;;12.15;10.55;;;;;;;16.29;100.00;98959.84;4990200;28;20031;-69
2024/03/24 09:21:12;;;;;;;12.60;11.02;;;;;;;15.71;100.00;99051.75;4991740;28;20456;-70
2024/03/24 09:23:37;;;;;;;14.23;10.73;;;;;;;16.00;100.00;99006.31;4990050;28;20038;-70
2024/03/24 09:26:03;;;;;;;14.38;11.57;;;;;;;15.71;100.00;99053.50;4991476;28;20066;-77
2024/03/24 09:28:29;;;;;;;13.95;10.30;;;;;;;16.65;100.00;98953.97;4991204;28;20048;-70
2024/03/24 09:31:02;;;;;;;13.73;11.00;;;;;;;15.60;100.00;98921.78;4990729;28;20113;-70
2024/03/24 09:33:28;;;;;;;12.32;10.07;;;;;;;17.11;100.00;98967.78;4989951;28;20036;-71
2024/03/24 09:35:59;;;;;;;30.35;27.08;;;;;;;16.74;100.00;98958.47;4989900;28;20105;-70
2024/03/24 09:38:24;;;;;;;15.07;13.48;;;;;;;15.46;100.00;99139.59;4990920;28;20042;-71
2024/03/24 09:40:51;;;;;;;13.63;10.38;;;;;;;16.75;100.00;98944.72;4992841;28;20030;-70
2024/03/24 09:43:17;;;;;;;14.60;11.25;;;;;;;17.78;100.00;99006.69;5000725;28;20027;-71
2024/03/24 09:45:46;;;;;;;12.07;10.60;;;;;;;17.66;100.00;99100.94;4996724;28;20484;-71
2024/03/24 09:48:12;;;;;;;15.50;11.77;;;;;;;16.77;100.00;99045.53;4990597;28;20062;-71
2024/03/24 09:50:39;;;;;;;12.90;10.57;;;;;;;17.28;100.00;99077.06;4990733;28;20034;-70
2024/03/24 09:53:04;;;;;;;12.48;10.55;;;;;;;17.43;100.00;98982.69;4990771;28;20145;-70
2024/03/24 09:55:30;;;;;;;12.15;9.80;;;;;;;17.69;100.00;99107.63;5006430;28;20495;-70
2024/03/24 09:57:56;;;;;;;11.75;9.38;;;;;;;18.07;100.00;99072.22;5029850;28;20037;-70
2024/03/24 10:00:26;;;;;;;12.60;10.35;;;;;;;17.42;100.00;99007.53;5030087;28;20091;-70
2024/03/24 10:02:52;;;;;;;12.32;9.95;;;;;;;17.92;100.00;99073.34;5030032;28;20033;-70
2024/03/24 10:05:18;;;;;;;10.70;9.02;;;;;;;18.82;100.00;99079.41;5026751;28;20041;-70
2024/03/24 10:07:44;;;;;;;11.93;9.45;;;;;;;19.32;100.00;99115.94;5028474;28;20088;-72
2024/03/24 10:10:10;;;;;;;11.57;9.23;;;;;;;17.80;100.00;99182.25;5028868;28;20068;-72
2024/03/24 10:12:35;;;;;;;10.02;8.93;;;;;;;18.31;100.00;99195.72;5016224;28;20396;-72
2024/03/24 10:15:25;;;;;;;9.80;8.68;;;;;;;17.58;100.00;99110.13;5028195;28;20046;-70
2024/03/24 10:18:07;;;;;;;12.07;9.93;;;;;;;18.10;100.00;99226.38;5028342;28;20523;-70
2024/03/24 10:20:34;;;;;;;11.55;9.50;;;;;;;18.03;100.00;99228.56;5028546;28;20419;-68
2024/03/24 10:23:00;;;;;;;13.65;9.73;;;;;;;18.54;100.00;99308.19;5027301;28;20571;-69
2024/03/24 10:25:27;;;;;;;10.82;9.02;;;;;;;18.57;100.00;99257.28;5028299;28;20041;-69
2024/03/24 10:27:54;;;;;;;10.88;9.63;;;;;;;18.20;100.00;99127.81;5026662;28;20169;-69
2024/03/24 10:30:20;;;;;;;10.82;9.30;;;;;;;18.96;100.00;99195.13;5026753;28;20030;-69
2024/03/24 10:32:45;;;;;;;11.40;9.10;;;;;;;17.86;100.00;99253.81;5027486;28;20040;-70
2024/03/24 10:35:11;;;;;;;12.40;8.90;;;;;;;19.10;100.00;99085.84;5014481;28;20037;-70
2024/03/24 10:37:38;;;;;;;13.55;9.32;;;;;;;17.93;100.00;99186.41;5026286;28;20495;-73
2024/03/24 10:40:13;;;;;;;13.10;9.38;;;;;;;18.93;100.00;99277.81;5027901;28;20028;-70
2024/03/24 10:42:49;;;;;;;14.85;9.30;;;;;;;18.94;100.00;99235.63;5025697;28;20104;-70
2024/03/24 10:45:22;;;;;;;10.13;9.00;;;;;;;19.58;100.00;99249.69;5011745;28;20462;-70
2024/03/24 10:47:55;;;;;;;10.40;8.70;;;;;;;20.26;100.00;99213.38;5015053;28;20025;-69
2024/03/24 10:50:21;;;;;;;11.05;8.65;;;;;;;20.32;100.00;99236.09;5027015;28;20021;-70
2024/03/24 10:52:47;;;;;;;9.60;8.40;;;;;;;19.83;100.00;99295.88;5008637;28;20033;-70
2024/03/24 10:55:13;;;;;;;10.02;7.60;;;;;;;20.38;100.00;99258.06;5012313;28;20041;-73
2024/03/24 10:57:41;;;;;;;8.73;7.20;;;;;;;20.25;100.00;99290.94;5025733;28;20033;-70
2024/03/24 11:00:07;;;;;;;8.60;6.93;;;;;;;19.67;100.00;99143.22;5027144;28;20170;-69
2024/03/24 11:02:33;;;;;;;9.77;7.85;;;;;;;20.19;100.00;99253.50;5009384;28;20058;-69
2024/03/24 11:05:01;;;;;;;8.75;7.20;;;;;;;19.66;100.00;99300.69;5027315;28;20033;-69
2024/03/24 11:07:28;;;;;;;8.90;7.40;;;;;;;19.76;100.00;99185.53;5012097;28;20033;-73
2024/03/24 11:09:54;;;;;;;8.20;7.30;;;;;;;20.56;100.00;99257.38;5025920;28;20065;-69
2024/03/24 11:12:20;;;;;;;9.05;6.93;;;;;;;21.03;100.00;99240.63;5026580;28;20040;-69